Courtland, Mississippi
Current Conditions -  °F | °C
As of 11:35 PM on Monday 26 Jan 2015 (Local Time) from KUOX Reporting Station
Clear Clear  
Wind Chill: 32°   Ceiling: Unl
Heat Index: 36°   Visibility: 10mi
Dew Point: 32°   Wind: 5mph
Humidity: 87%   Direction: 250°WSW
Pressure: 29.98"   Gusts: NA
Location:  34.24°N, 89.94°W
Report Text: KUOX 270535Z AUTO 25004KT 10SM CLR 02/00 A2998 RMK AO2 PWINO PNO
Loading
Personal Weather Stations






























Interactive Weather Map New forecast layout! Learn more

10-Day Weather Forecast

Advertisements
Track Severe Weather on mobile